Time;durP1;ratioP1;P1;durP2;ratioP2;P2;SDS_P1;SDS_P2;PMS_P1;PMS_P2;Temp;Humidity;BMP_temperature;BMP_pressure;BME280_temperature;BME280_humidity;BME280_pressure;Samples;Min_cycle;Max_cycle;Signal;HPM_P1;HPM_P2
2023/04/30 00:00:41;;;;;;;6.50;5.53;;;14.30;98.60;;;;;;5073890;28;20407;-71
2023/04/30 00:03:07;;;;;;;8.57;5.80;;;14.30;98.60;;;;;;5089194;28;20934;-71
2023/04/30 00:05:33;;;;;;;6.50;5.80;;;14.30;98.60;;;;;;5056201;28;20426;-71
2023/04/30 00:07:59;;;;;;;6.40;5.50;;;14.30;98.60;;;;;;5074000;28;20639;-71
2023/04/30 00:10:30;;;;;;;7.83;6.40;;;14.20;98.50;;;;;;5055800;28;20428;-71
2023/04/30 00:12:56;;;;;;;6.67;6.00;;;14.20;98.50;;;;;;5073553;28;20552;-71
2023/04/30 00:15:24;;;;;;;8.87;5.90;;;14.20;98.40;;;;;;5073371;28;20408;-71
2023/04/30 00:17:52;;;;;;;9.40;6.80;;;14.20;98.40;;;;;;5055536;28;20498;-71
2023/04/30 00:20:20;;;;;;;6.57;5.97;;;14.20;98.40;;;;;;5040135;28;20401;-72
2023/04/30 00:22:46;;;;;;;8.97;6.30;;;14.20;98.40;;;;;;5038794;28;20546;-71
2023/04/30 00:25:12;;;;;;;7.47;5.67;;;14.20;98.40;;;;;;5039163;28;20500;-71
2023/04/30 00:27:41;;;;;;;6.50;5.70;;;14.20;98.40;;;;;;5038325;28;20425;-71
2023/04/30 00:30:07;;;;;;;6.20;5.60;;;14.20;98.40;;;;;;5038642;28;20457;-71
2023/04/30 00:32:33;;;;;;;6.40;5.80;;;14.10;98.40;;;;;;5054458;28;20553;-71
2023/04/30 00:35:01;;;;;;;7.83;6.30;;;14.20;98.40;;;;;;5038969;28;20497;-71
2023/04/30 00:37:30;;;;;;;6.00;5.40;;;14.10;98.40;;;;;;5055074;28;20640;-71
2023/04/30 00:40:01;;;;;;;6.50;5.70;;;14.10;98.30;;;;;;5034658;28;20476;-71
2023/04/30 00:42:31;;;;;;;6.33;5.73;;;14.10;98.30;;;;;;5036489;28;20591;-71
2023/04/30 00:45:00;;;;;;;6.40;5.73;;;14.10;98.30;;;;;;5054925;28;20485;-71
2023/04/30 00:47:26;;;;;;;6.80;5.90;;;14.10;98.30;;;;;;5055099;28;20518;-71
2023/04/30 00:49:52;;;;;;;6.37;5.60;;;14.10;98.30;;;;;;5021957;28;20449;-71
2023/04/30 00:52:20;;;;;;;7.50;5.37;;;14.10;98.30;;;;;;5054718;28;20875;-71
2023/04/30 00:54:49;;;;;;;6.87;5.80;;;14.10;98.30;;;;;;5072287;28;20570;-71
2023/04/30 00:57:15;;;;;;;6.43;5.50;;;14.10;98.30;;;;;;5026682;28;20474;-71
2023/04/30 00:59:46;;;;;;;9.03;5.40;;;14.00;98.30;;;;;;5051765;28;20528;-71
2023/04/30 01:02:16;;;;;;;5.97;5.30;;;14.00;98.30;;;;;;5054783;28;20448;-71
2023/04/30 01:04:42;;;;;;;6.50;5.57;;;14.00;98.30;;;;;;5038414;28;20490;-71
2023/04/30 01:07:12;;;;;;;6.90;5.37;;;14.00;98.30;;;;;;5054642;28;20843;-71
2023/04/30 01:09:38;;;;;;;6.33;5.50;;;14.00;98.30;;;;;;5071203;28;20437;-71
2023/04/30 01:12:19;;;;;;;7.17;5.90;;;14.00;98.30;;;;;;5038390;28;20894;-71
2023/04/30 01:14:56;;;;;;;6.50;5.20;;;14.00;98.30;;;;;;5038306;28;20470;-71
2023/04/30 01:17:40;;;;;;;8.70;5.37;;;14.00;98.30;;;;;;5054424;28;20490;-71
2023/04/30 01:20:08;;;;;;;7.27;4.97;;;14.00;98.30;;;;;;5054276;28;20406;-71
2023/04/30 01:22:56;;;;;;;6.13;5.50;;;14.00;98.30;;;;;;5054194;28;20487;-71
2023/04/30 01:25:52;;;;;;;6.20;5.43;;;13.90;98.20;;;;;;5038044;28;20452;-71
2023/04/30 01:28:19;;;;;;;6.00;5.40;;;13.90;98.20;;;;;;5021588;28;20449;-71
2023/04/30 01:30:46;;;;;;;6.00;5.40;;;13.90;98.20;;;;;;5054211;28;20445;-71
2023/04/30 01:33:13;;;;;;;8.47;5.40;;;13.90;98.30;;;;;;5037648;28;20468;-71
2023/04/30 01:35:55;;;;;;;6.40;5.20;;;13.90;98.30;;;;;;5038032;28;20450;-71
2023/04/30 01:38:27;;;;;;;6.90;5.20;;;13.90;98.20;;;;;;5072083;28;20427;-71
2023/04/30 01:41:09;;;;;;;6.13;5.33;;;13.90;98.20;;;;;;5054389;28;20413;-71
2023/04/30 01:43:43;;;;;;;6.20;5.43;;;13.90;98.20;;;;;;5038079;28;20525;-71
2023/04/30 01:46:33;;;;;;;8.30;6.07;;;13.90;98.20;;;;;;5053850;28;20450;-71
2023/04/30 01:49:35;;;;;;;7.40;6.13;;;13.80;98.10;;;;;;5054090;28;20427;-71
2023/04/30 01:52:32;;;;;;;6.10;5.13;;;13.80;98.10;;;;;;5036450;28;20501;-71
2023/04/30 01:55:19;;;;;;;6.47;5.33;;;13.80;98.10;;;;;;5002101;28;20446;-71
2023/04/30 01:58:09;;;;;;;5.43;4.80;;;13.80;98.10;;;;;;5070995;28;20482;-71
2023/04/30 02:00:35;;;;;;;6.50;5.30;;;13.80;98.10;;;;;;5071159;28;20759;-71
2023/04/30 02:03:01;;;;;;;6.27;5.50;;;13.80;98.10;;;;;;5053422;28;20456;-71
2023/04/30 02:05:31;;;;;;;6.73;5.87;;;13.80;98.10;;;;;;5053998;28;20821;-71
2023/04/30 02:07:57;;;;;;;5.87;5.27;;;13.70;98.10;;;;;;5071509;28;20479;-69
2023/04/30 02:10:25;;;;;;;7.40;5.63;;;13.70;98.00;;;;;;5046701;28;20794;-69
2023/04/30 02:12:54;;;;;;;5.83;5.23;;;13.70;98.10;;;;;;5036681;28;20469;-69
2023/04/30 02:15:22;;;;;;;7.00;5.73;;;13.70;98.00;;;;;;5053063;28;20969;-70
2023/04/30 02:17:48;;;;;;;7.00;5.77;;;13.70;98.00;;;;;;5020658;28;20435;-69
2023/04/30 02:20:14;;;;;;;7.20;5.27;;;13.70;98.00;;;;;;5053835;28;20434;-69
2023/04/30 02:22:42;;;;;;;6.23;5.00;;;13.70;98.00;;;;;;5020544;28;20469;-69
2023/04/30 02:25:08;;;;;;;6.10;4.60;;;13.70;98.00;;;;;;5071621;28;20408;-69
2023/04/30 02:27:34;;;;;;;5.23;4.73;;;13.70;98.00;;;;;;5071461;28;20400;-70
2023/04/30 02:30:00;;;;;;;9.13;5.50;;;13.60;98.00;;;;;;5071547;28;20420;-69
2023/04/30 02:32:28;;;;;;;6.57;5.10;;;13.60;97.90;;;;;;5053497;28;20531;-69
2023/04/30 02:34:54;;;;;;;6.50;5.27;;;13.60;97.90;;;;;;5053617;28;20398;-69
2023/04/30 02:37:23;;;;;;;5.53;4.83;;;13.60;97.90;;;;;;5053440;28;20978;-69
2023/04/30 02:39:53;;;;;;;6.80;5.30;;;13.60;97.90;;;;;;5036957;28;20461;-69
2023/04/30 02:42:23;;;;;;;7.80;6.07;;;13.60;97.90;;;;;;5036259;28;20448;-69
2023/04/30 02:44:54;;;;;;;6.40;5.17;;;13.60;97.90;;;;;;5071435;28;20394;-69
2023/04/30 02:47:20;;;;;;;7.63;5.30;;;13.60;97.90;;;;;;5020584;28;20848;-69
2023/04/30 02:49:48;;;;;;;6.30;5.57;;;13.50;97.80;;;;;;5053440;28;20439;-69
2023/04/30 02:52:17;;;;;;;5.20;4.70;;;13.50;97.80;;;;;;5036430;28;20473;-70
2023/04/30 02:54:47;;;;;;;6.77;4.73;;;13.50;97.80;;;;;;5053445;28;20406;-70
2023/04/30 02:57:18;;;;;;;5.73;5.13;;;13.50;97.80;;;;;;5053835;28;20433;-69
2023/04/30 02:59:48;;;;;;;7.17;5.87;;;13.50;97.80;;;;;;5071146;28;21055;-70
2023/04/30 03:02:20;;;;;;;8.30;5.60;;;13.50;97.80;;;;;;5052914;28;20435;-69
2023/04/30 03:04:48;;;;;;;8.33;5.73;;;13.50;97.80;;;;;;5056045;28;20456;-69
2023/04/30 03:07:19;;;;;;;7.17;5.07;;;13.40;98.10;;;;;;5005593;28;20454;-69
2023/04/30 03:09:47;;;;;;;6.70;5.73;;;13.40;97.70;;;;;;5037001;28;20430;-69
2023/04/30 03:12:13;;;;;;;6.90;5.03;;;13.40;97.70;;;;;;5020247;28;20476;-69
2023/04/30 03:14:42;;;;;;;8.57;6.37;;;13.50;97.70;;;;;;5037379;28;20397;-69
2023/04/30 03:17:12;;;;;;;6.50;5.70;;;13.40;97.70;;;;;;5020762;28;21076;-69
2023/04/30 03:19:41;;;;;;;6.67;5.17;;;13.40;97.70;;;;;;5054820;28;20281;-69
2023/04/30 03:22:07;;;;;;;8.07;6.07;;;13.40;97.70;;;;;;5040579;28;20457;-69
2023/04/30 03:24:36;;;;;;;5.90;5.30;;;13.40;97.70;;;;;;5037460;28;20421;-69
2023/04/30 03:27:04;;;;;;;6.40;5.43;;;13.40;97.70;;;;;;5053223;28;20406;-69
2023/04/30 03:29:32;;;;;;;5.90;4.57;;;13.30;97.60;;;;;;5053088;28;20411;-69
2023/04/30 03:31:58;;;;;;;6.63;5.47;;;13.30;97.60;;;;;;5036409;28;20997;-69
2023/04/30 03:34:24;;;;;;;7.37;5.97;;;13.30;97.60;;;;;;5036802;28;20434;-70
2023/04/30 03:36:50;;;;;;;7.27;6.00;;;13.30;97.60;;;;;;5036284;28;20402;-69
2023/04/30 03:39:21;;;;;;;5.97;5.37;;;13.30;97.60;;;;;;5051627;28;20440;-69
2023/04/30 03:41:46;;;;;;;8.37;6.43;;;13.30;97.60;;;;;;5039426;28;20470;-69
2023/04/30 03:44:15;;;;;;;6.93;5.63;;;13.30;97.60;;;;;;5074389;28;20415;-69
2023/04/30 03:46:44;;;;;;;7.50;5.30;;;13.30;97.60;;;;;;5056453;28;20455;-69
2023/04/30 03:49:10;;;;;;;7.90;5.20;;;13.20;97.50;;;;;;5040032;28;20455;-70
2023/04/30 03:51:40;;;;;;;9.27;6.20;;;13.20;97.50;;;;;;5056204;28;20436;-69
2023/04/30 03:54:07;;;;;;;8.83;5.90;;;13.20;97.50;;;;;;5039333;28;20918;-69
2023/04/30 03:56:34;;;;;;;10.33;6.23;;;13.20;97.50;;;;;;5056604;28;20516;-68
2023/04/30 03:59:03;;;;;;;7.83;5.87;;;13.20;97.40;;;;;;5039574;28;20434;-69
2023/04/30 04:01:30;;;;;;;8.37;5.57;;;13.20;97.40;;;;;;5019061;28;20461;-69
2023/04/30 04:03:57;;;;;;;7.27;5.70;;;13.20;97.40;;;;;;5036194;28;20421;-69
2023/04/30 04:06:25;;;;;;;7.17;5.70;;;13.20;97.40;;;;;;5035751;28;20419;-69
2023/04/30 04:08:52;;;;;;;6.13;5.53;;;13.20;97.40;;;;;;5069031;28;20419;-69
2023/04/30 04:11:17;;;;;;;7.17;5.80;;;13.10;97.30;;;;;;5055592;28;20455;-69
2023/04/30 04:13:44;;;;;;;8.40;6.73;;;13.10;97.30;;;;;;5055544;28;20869;-69
2023/04/30 04:16:12;;;;;;;7.27;6.00;;;13.10;97.30;;;;;;5054759;28;20914;-69
2023/04/30 04:18:38;;;;;;;7.77;6.30;;;13.10;97.30;;;;;;5038541;28;20522;-70
2023/04/30 04:21:04;;;;;;;7.60;6.10;;;13.10;97.30;;;;;;5029947;28;20466;-69
2023/04/30 04:23:30;;;;;;;10.03;5.97;;;13.10;97.30;;;;;;5052426;28;20417;-69
2023/04/30 04:25:59;;;;;;;7.93;6.00;;;13.10;97.30;;;;;;5054989;28;20432;-69
2023/04/30 04:28:27;;;;;;;7.87;7.03;;;13.10;97.30;;;;;;5055691;28;20479;-69
2023/04/30 04:30:53;;;;;;;7.83;6.40;;;13.00;97.30;;;;;;5054830;28;20935;-69
2023/04/30 04:33:21;;;;;;;6.87;5.53;;;13.00;97.30;;;;;;5038844;28;20465;-70
2023/04/30 04:35:48;;;;;;;10.23;6.87;;;13.00;97.30;;;;;;5055269;28;20456;-69
2023/04/30 04:38:14;;;;;;;8.67;6.93;;;13.00;97.30;;;;;;5045385;28;20989;-69
2023/04/30 04:40:52;;;;;;;9.13;7.23;;;13.00;97.30;;;;;;5052991;28;20473;-69
2023/04/30 04:43:19;;;;;;;9.30;6.60;;;13.00;97.30;;;;;;5038726;28;20540;-69
2023/04/30 04:45:46;;;;;;;8.70;7.27;;;13.00;97.30;;;;;;5055468;28;20391;-70
2023/04/30 04:48:14;;;;;;;8.43;6.93;;;13.00;97.30;;;;;;5072972;28;20804;-69
2023/04/30 04:50:43;;;;;;;9.97;6.87;;;13.00;97.30;;;;;;5055483;28;20772;-69
2023/04/30 04:53:12;;;;;;;8.00;6.50;;;13.00;97.30;;;;;;5055495;28;21117;-69
2023/04/30 04:55:45;;;;;;;11.10;7.00;;;12.90;97.30;;;;;;5073112;28;20846;-69
2023/04/30 04:58:11;;;;;;;7.63;6.60;;;12.90;97.30;;;;;;5069012;28;20422;-69
2023/04/30 05:00:38;;;;;;;9.90;7.07;;;12.90;97.30;;;;;;5018892;28;20934;-69
2023/04/30 05:03:04;;;;;;;9.87;6.90;;;12.90;97.30;;;;;;5018267;28;20585;-69
2023/04/30 05:05:30;;;;;;;8.37;6.60;;;12.90;97.30;;;;;;5018814;28;20856;-70
2023/04/30 05:07:56;;;;;;;7.87;7.07;;;12.90;97.30;;;;;;5018217;28;20434;-69
2023/04/30 05:10:24;;;;;;;8.80;7.10;;;12.90;97.40;;;;;;5045695;28;20768;-69
2023/04/30 05:12:55;;;;;;;10.33;6.37;;;12.90;97.70;;;;;;5037911;28;20468;-69
2023/04/30 05:15:25;;;;;;;7.53;6.40;;;12.90;97.40;;;;;;5072610;28;20401;-69
2023/04/30 05:17:51;;;;;;;7.43;6.73;;;12.90;97.40;;;;;;5038404;28;21334;-69
2023/04/30 05:20:20;;;;;;;9.27;7.60;;;12.80;97.40;;;;;;5054927;28;20772;-69
2023/04/30 05:22:46;;;;;;;7.90;7.10;;;12.80;97.40;;;;;;5054110;28;20467;-69
2023/04/30 05:25:14;;;;;;;7.93;6.80;;;12.80;97.40;;;;;;5054705;28;20864;-69
2023/04/30 05:27:43;;;;;;;7.23;6.50;;;12.80;97.50;;;;;;5041322;28;20445;-69
2023/04/30 05:30:11;;;;;;;8.80;6.90;;;12.80;97.50;;;;;;5054601;28;20440;-69
2023/04/30 05:32:39;;;;;;;11.20;7.90;;;12.80;97.50;;;;;;5043810;28;20459;-69
2023/04/30 05:35:06;;;;;;;8.33;7.20;;;12.80;97.50;;;;;;5034893;28;20424;-69
2023/04/30 05:37:34;;;;;;;7.03;6.33;;;12.80;97.50;;;;;;5052339;28;20408;-69
2023/04/30 05:40:02;;;;;;;6.97;6.27;;;12.80;97.60;;;;;;5075021;28;20448;-69
2023/04/30 05:42:28;;;;;;;8.40;7.50;;;12.80;97.60;;;;;;5053845;28;20442;-69
2023/04/30 05:44:57;;;;;;;7.97;6.43;;;12.80;97.60;;;;;;5038015;28;20426;-69
2023/04/30 05:47:26;;;;;;;11.27;7.73;;;12.80;97.60;;;;;;5038484;28;20463;-69
2023/04/30 05:49:52;;;;;;;8.80;7.53;;;12.80;97.60;;;;;;5071670;28;20779;-70
2023/04/30 05:52:22;;;;;;;9.30;7.10;;;12.80;97.70;;;;;;5053821;28;20466;-71
2023/04/30 05:54:50;;;;;;;10.00;6.90;;;12.70;97.70;;;;;;5072555;28;20491;-71
2023/04/30 05:57:16;;;;;;;8.40;6.87;;;12.80;97.70;;;;;;5054116;28;20883;-69
2023/04/30 05:59:42;;;;;;;8.67;7.07;;;12.70;97.70;;;;;;5054516;28;20918;-69
2023/04/30 06:02:08;;;;;;;7.40;6.10;;;12.70;97.70;;;;;;5005528;28;20464;-69
2023/04/30 06:04:36;;;;;;;7.77;6.50;;;12.70;97.70;;;;;;5050067;28;20169;-69
2023/04/30 06:07:05;;;;;;;7.70;6.93;;;12.70;97.80;;;;;;5015482;28;20530;-69
2023/04/30 06:09:36;;;;;;;10.77;7.80;;;12.70;97.80;;;;;;5033412;28;20429;-69
2023/04/30 06:12:07;;;;;;;7.23;6.33;;;12.70;97.80;;;;;;5052192;28;20464;-69
2023/04/30 06:14:36;;;;;;;9.40;7.60;;;12.70;97.80;;;;;;5051819;28;20427;-69
2023/04/30 06:17:02;;;;;;;7.33;6.57;;;12.70;97.80;;;;;;5019409;28;20436;-69
2023/04/30 06:19:30;;;;;;;10.00;7.53;;;12.70;97.90;;;;;;5083394;28;20410;-69
2023/04/30 06:21:56;;;;;;;9.20;6.73;;;12.70;97.90;;;;;;5069450;28;20485;-69
2023/04/30 06:24:22;;;;;;;8.30;7.50;;;12.70;97.90;;;;;;5069018;28;20171;-69
2023/04/30 06:26:53;;;;;;;7.47;6.40;;;12.70;97.90;;;;;;5051614;28;20474;-69
2023/04/30 06:29:19;;;;;;;7.63;6.83;;;12.70;98.00;;;;;;5051469;28;20496;-69
2023/04/30 06:31:55;;;;;;;7.73;6.23;;;12.70;98.00;;;;;;5050277;28;20465;-69
2023/04/30 06:34:21;;;;;;;8.00;6.63;;;12.70;98.30;;;;;;5050164;28;20446;-69
2023/04/30 06:36:47;;;;;;;11.17;7.40;;;12.70;98.00;;;;;;5033514;28;20571;-69
2023/04/30 06:39:18;;;;;;;8.43;7.53;;;12.70;98.00;;;;;;5037340;28;20784;-69
2023/04/30 06:41:46;;;;;;;8.60;6.67;;;12.70;98.00;;;;;;5036888;28;20451;-69
2023/04/30 06:44:15;;;;;;;8.27;7.20;;;12.70;98.10;;;;;;5039135;28;20432;-70
2023/04/30 06:46:41;;;;;;;8.60;6.93;;;12.70;98.10;;;;;;5039081;28;20409;-69
2023/04/30 06:49:07;;;;;;;8.03;7.20;;;12.70;98.10;;;;;;5072763;28;21135;-69
2023/04/30 06:51:33;;;;;;;8.10;6.50;;;12.70;98.10;;;;;;5038621;28;20293;-68
2023/04/30 06:53:59;;;;;;;8.53;6.80;;;12.70;98.10;;;;;;5055701;28;20978;-70
2023/04/30 06:56:25;;;;;;;7.90;6.40;;;12.70;98.10;;;;;;5067244;28;20332;-69
2023/04/30 06:58:54;;;;;;;8.50;6.70;;;12.70;98.20;;;;;;5053330;28;20402;-69
2023/04/30 07:01:22;;;;;;;8.63;6.50;;;12.80;98.20;;;;;;5068662;28;20435;-69
2023/04/30 07:03:48;;;;;;;7.80;6.00;;;12.70;98.20;;;;;;5055546;28;20510;-69
2023/04/30 07:06:14;;;;;;;7.97;6.80;;;12.80;98.30;;;;;;5055430;28;20826;-69
2023/04/30 07:08:42;;;;;;;6.33;5.60;;;12.80;98.30;;;;;;5039096;28;20424;-69
2023/04/30 07:11:09;;;;;;;7.87;6.40;;;12.80;98.30;;;;;;5055201;28;20408;-69
2023/04/30 07:13:37;;;;;;;8.60;6.37;;;12.80;98.30;;;;;;5022182;28;20460;-70
2023/04/30 07:16:04;;;;;;;10.17;6.60;;;12.80;98.30;;;;;;5072220;28;20512;-69
2023/04/30 07:18:30;;;;;;;7.90;5.83;;;12.80;98.30;;;;;;5038024;28;20462;-69
2023/04/30 07:21:00;;;;;;;7.93;6.70;;;12.80;98.30;;;;;;5052752;28;20429;-69
2023/04/30 07:23:28;;;;;;;6.87;5.83;;;12.80;98.40;;;;;;5038674;28;20468;-69
2023/04/30 07:25:56;;;;;;;7.60;6.60;;;12.80;98.40;;;;;;5072187;28;20451;-69
2023/04/30 07:28:22;;;;;;;10.60;6.63;;;12.90;98.40;;;;;;5074142;28;21076;-70
2023/04/30 07:30:53;;;;;;;8.07;6.87;;;12.90;98.40;;;;;;5074421;28;20781;-69
2023/04/30 07:33:21;;;;;;;9.00;6.67;;;12.90;98.50;;;;;;5056325;28;20542;-69
2023/04/30 07:35:47;;;;;;;8.03;6.10;;;12.90;98.60;;;;;;5074211;28;20507;-69
2023/04/30 07:38:13;;;;;;;8.23;6.77;;;12.90;98.70;;;;;;5056488;28;20852;-69
2023/04/30 07:40:44;;;;;;;8.33;5.90;;;12.90;98.60;;;;;;5056392;28;20426;-69
2023/04/30 07:43:10;;;;;;;8.70;7.87;;;13.00;98.60;;;;;;5056169;28;20531;-69
2023/04/30 07:45:37;;;;;;;9.33;6.40;;;13.00;98.60;;;;;;5073856;28;20859;-69
2023/04/30 07:48:05;;;;;;;8.97;6.37;;;13.00;98.60;;;;;;5074531;28;20549;-69
2023/04/30 07:50:33;;;;;;;8.77;6.03;;;13.00;98.70;;;;;;5073701;28;20888;-69
2023/04/30 07:53:00;;;;;;;7.67;6.20;;;13.00;98.60;;;;;;5039354;28;20461;-69
2023/04/30 07:55:29;;;;;;;7.43;6.53;;;13.10;98.70;;;;;;5089931;28;20501;-69
2023/04/30 07:57:55;;;;;;;9.53;7.00;;;13.10;98.70;;;;;;5073985;28;20527;-69
2023/04/30 08:00:21;;;;;;;7.87;6.30;;;13.10;98.70;;;;;;5039184;28;20891;-70
2023/04/30 08:02:48;;;;;;;6.63;6.00;;;13.10;98.70;;;;;;5055800;28;20203;-70
2023/04/30 08:05:14;;;;;;;7.17;6.13;;;13.10;98.70;;;;;;5039524;28;20435;-70
2023/04/30 08:07:43;;;;;;;9.17;5.43;;;13.10;98.70;;;;;;5056779;28;20406;-70
2023/04/30 08:10:11;;;;;;;7.27;6.50;;;13.20;98.70;;;;;;5056076;28;20409;-70
2023/04/30 08:12:38;;;;;;;8.17;5.77;;;13.20;98.70;;;;;;5054808;28;20968;-69
2023/04/30 08:15:07;;;;;;;6.60;5.90;;;13.20;98.80;;;;;;5073679;28;20431;-69
2023/04/30 08:17:33;;;;;;;7.20;5.97;;;13.20;98.80;;;;;;5039453;28;20435;-69
2023/04/30 08:20:08;;;;;;;6.93;6.00;;;13.20;98.90;;;;;;5056001;28;20456;-70
2023/04/30 08:22:36;;;;;;;8.80;6.33;;;13.20;98.80;;;;;;5073522;28;20455;-69
2023/04/30 08:25:07;;;;;;;10.00;6.27;;;13.30;98.90;;;;;;5056116;28;20449;-69
2023/04/30 08:27:35;;;;;;;5.90;4.80;;;13.30;98.90;;;;;;5055876;28;20955;-69
2023/04/30 08:30:01;;;;;;;6.23;5.60;;;13.30;98.80;;;;;;5055613;28;20458;-69
2023/04/30 08:32:27;;;;;;;7.30;6.20;;;13.30;98.80;;;;;;5038711;28;21009;-70
2023/04/30 08:34:54;;;;;;;6.67;5.50;;;13.40;98.90;;;;;;5055381;28;20420;-69
2023/04/30 08:37:20;;;;;;;6.50;5.07;;;13.40;99.00;;;;;;5073102;28;20878;-70
2023/04/30 08:39:48;;;;;;;6.23;5.30;;;13.40;98.90;;;;;;5055203;28;20414;-69
2023/04/30 08:42:16;;;;;;;7.43;5.90;;;13.50;98.90;;;;;;5055293;28;20435;-69
2023/04/30 08:44:45;;;;;;;5.83;5.23;;;13.50;98.90;;;;;;5055002;28;20497;-69
2023/04/30 08:47:15;;;;;;;6.43;4.77;;;13.60;99.00;;;;;;5055183;28;20494;-70
2023/04/30 08:49:42;;;;;;;7.70;5.00;;;13.60;99.00;;;;;;5073003;28;20401;-69
2023/04/30 08:52:09;;;;;;;6.47;4.80;;;13.60;98.90;;;;;;5088284;28;20469;-69
2023/04/30 08:54:36;;;;;;;6.67;4.73;;;13.70;98.90;;;;;;5055159;28;20460;-70
2023/04/30 08:57:03;;;;;;;7.43;4.90;;;13.70;98.80;;;;;;5055068;28;20479;-70
2023/04/30 08:59:31;;;;;;;5.00;4.50;;;13.70;98.80;;;;;;5087953;28;20500;-70
2023/04/30 09:02:01;;;;;;;12.30;4.93;;;13.80;98.80;;;;;;5054486;28;20453;-70
2023/04/30 09:04:28;;;;;;;4.97;4.20;;;13.80;98.80;;;;;;5054523;28;20421;-69
2023/04/30 09:07:00;;;;;;;6.33;4.53;;;13.80;98.70;;;;;;5054523;28;20439;-69
2023/04/30 09:09:29;;;;;;;5.33;4.27;;;13.90;98.80;;;;;;5054962;28;20432;-70
2023/04/30 09:12:17;;;;;;;4.90;4.30;;;13.90;98.80;;;;;;5054647;28;20499;-70
2023/04/30 09:15:03;;;;;;;6.07;4.40;;;13.90;98.80;;;;;;5070848;28;20423;-69
2023/04/30 09:17:32;;;;;;;4.87;4.17;;;14.00;98.80;;;;;;5088079;28;20444;-69
2023/04/30 09:20:13;;;;;;;5.37;4.00;;;14.00;98.80;;;;;;5088274;28;20412;-69
2023/04/30 09:22:41;;;;;;;3.70;3.13;;;14.10;98.80;;;;;;5054566;28;20495;-69
2023/04/30 09:25:08;;;;;;;5.00;3.97;;;14.10;98.80;;;;;;5072334;28;20434;-70
2023/04/30 09:27:34;;;;;;;5.57;4.40;;;14.20;98.80;;;;;;5038245;28;20402;-69
2023/04/30 09:30:00;;;;;;;5.93;3.90;;;14.20;98.80;;;;;;5083916;28;20499;-70
2023/04/30 09:32:26;;;;;;;5.80;4.00;;;14.30;98.70;;;;;;5034498;28;20889;-69
2023/04/30 09:34:54;;;;;;;3.97;3.60;;;14.30;98.70;;;;;;5037737;28;20449;-69
2023/04/30 09:37:20;;;;;;;4.40;3.80;;;14.40;98.80;;;;;;5054476;28;20437;-70
2023/04/30 09:39:55;;;;;;;4.60;3.43;;;14.40;98.80;;;;;;5053960;28;20418;-70
2023/04/30 09:42:23;;;;;;;4.80;4.00;;;14.40;98.70;;;;;;5038028;28;20449;-70
2023/04/30 09:44:54;;;;;;;6.30;3.20;;;14.50;98.80;;;;;;5053911;28;20960;-72
2023/04/30 09:47:23;;;;;;;3.50;3.20;;;14.50;98.80;;;;;;5035602;28;20449;-73
2023/04/30 09:49:50;;;;;;;3.40;3.10;;;14.60;98.80;;;;;;5074665;28;20438;-72
2023/04/30 09:52:22;;;;;;;4.33;3.27;;;14.60;98.70;;;;;;5054024;28;20476;-72
2023/04/30 09:54:48;;;;;;;3.40;3.10;;;14.70;98.70;;;;;;5082710;28;20956;-72
2023/04/30 09:57:21;;;;;;;5.10;2.90;;;14.70;98.70;;;;;;5037422;28;20450;-72
2023/04/30 09:59:48;;;;;;;4.60;3.60;;;14.80;98.70;;;;;;5037628;28;20418;-72
2023/04/30 10:02:23;;;;;;;3.80;3.37;;;14.80;98.70;;;;;;5053508;28;20863;-73
2023/04/30 10:04:54;;;;;;;3.60;2.80;;;14.90;98.70;;;;;;5017057;28;20461;-72
2023/04/30 10:07:22;;;;;;;4.80;3.70;;;14.90;98.50;;;;;;5035572;28;20434;-73
2023/04/30 10:09:54;;;;;;;3.70;3.17;;;15.00;98.40;;;;;;5052730;28;20406;-73
2023/04/30 10:12:30;;;;;;;4.67;3.07;;;15.00;98.30;;;;;;5034646;28;20998;-73
2023/04/30 10:15:05;;;;;;;4.03;3.63;;;15.10;98.30;;;;;;5036376;28;20435;-73
2023/04/30 10:17:39;;;;;;;3.17;2.87;;;15.10;98.10;;;;;;5036023;28;20407;-73
2023/04/30 10:20:08;;;;;;;4.60;3.60;;;15.10;98.10;;;;;;5053270;28;20520;-73
2023/04/30 10:22:34;;;;;;;3.50;3.20;;;15.20;98.10;;;;;;5087162;28;20472;-74
2023/04/30 10:25:02;;;;;;;3.43;2.93;;;15.30;98.00;;;;;;5054068;28;20944;-74
2023/04/30 10:27:32;;;;;;;3.30;3.00;;;15.30;98.00;;;;;;5021199;28;20508;-74
2023/04/30 10:29:59;;;;;;;3.50;2.87;;;15.30;98.00;;;;;;5053714;28;20419;-74
2023/04/30 10:32:36;;;;;;;3.77;3.03;;;15.40;98.00;;;;;;5052472;28;20981;-74
2023/04/30 10:35:21;;;;;;;3.77;3.30;;;15.40;98.00;;;;;;5087129;28;20438;-74
2023/04/30 10:37:57;;;;;;;3.40;3.10;;;15.50;97.90;;;;;;5038511;28;20436;-74
2023/04/30 10:40:26;;;;;;;4.33;3.00;;;15.50;97.80;;;;;;5053630;28;20431;-74
2023/04/30 10:42:56;;;;;;;3.37;2.77;;;15.60;97.80;;;;;;5051774;28;20543;-73
2023/04/30 10:45:36;;;;;;;3.40;3.00;;;15.60;97.80;;;;;;5053994;28;20399;-75
2023/04/30 10:48:03;;;;;;;4.20;3.27;;;15.70;97.70;;;;;;5067625;28;20447;-75
2023/04/30 10:50:29;;;;;;;3.70;2.43;;;15.70;97.60;;;;;;5085095;28;20921;-75
2023/04/30 10:53:03;;;;;;;4.00;2.90;;;15.80;97.50;;;;;;5050826;28;21030;-75
2023/04/30 10:55:31;;;;;;;4.63;3.20;;;15.80;97.50;;;;;;5032753;28;20419;-75
2023/04/30 10:58:00;;;;;;;2.53;2.33;;;15.80;97.40;;;;;;5035418;28;20448;-76
2023/04/30 11:00:28;;;;;;;2.40;2.20;;;15.90;97.30;;;;;;5053746;28;20428;-78
2023/04/30 11:03:02;;;;;;;3.20;2.90;;;15.90;97.30;;;;;;5020404;28;20458;-77
2023/04/30 11:05:37;;;;;;;3.73;2.60;;;16.00;97.20;;;;;;5052831;28;20815;-76
2023/04/30 11:08:07;;;;;;;3.33;3.03;;;16.00;97.10;;;;;;5037245;28;20446;-74
2023/04/30 11:10:36;;;;;;;3.40;2.30;;;16.10;97.00;;;;;;5054122;28;20434;-75
2023/04/30 11:13:09;;;;;;;2.97;2.70;;;16.10;96.80;;;;;;5070950;28;20503;-73
2023/04/30 11:15:44;;;;;;;3.43;2.57;;;16.20;96.60;;;;;;5053968;28;20916;-76
2023/04/30 11:18:12;;;;;;;3.30;2.57;;;16.20;96.50;;;;;;5053229;28;20447;-76
2023/04/30 11:20:42;;;;;;;3.17;2.60;;;16.30;96.50;;;;;;5091215;28;20493;-78
2023/04/30 11:23:15;;;;;;;4.13;3.00;;;16.30;96.40;;;;;;5055324;28;20458;-77
2023/04/30 11:25:45;;;;;;;3.13;2.60;;;16.30;96.40;;;;;;5075795;28;20449;-77
2023/04/30 11:28:23;;;;;;;2.47;2.20;;;16.40;96.30;;;;;;5091013;28;20417;-77
2023/04/30 11:30:52;;;;;;;3.83;2.77;;;16.40;96.00;;;;;;5056907;28;20446;-77
2023/04/30 11:33:18;;;;;;;2.97;2.60;;;16.40;95.90;;;;;;5040128;28;20466;-74
2023/04/30 11:35:44;;;;;;;2.67;2.47;;;16.50;95.90;;;;;;5075173;28;20468;-74
2023/04/30 11:38:12;;;;;;;3.23;2.53;;;16.50;95.80;;;;;;5075119;28;20541;-77
2023/04/30 11:40:39;;;;;;;2.37;1.80;;;16.60;96.00;;;;;;5056226;28;20771;-76
2023/04/30 11:43:21;;;;;;;2.10;1.90;;;16.60;95.60;;;;;;5057193;28;20521;-77
2023/04/30 11:46:05;;;;;;;2.10;1.90;;;16.60;95.50;;;;;;5056521;28;20471;-73
2023/04/30 11:48:34;;;;;;;2.87;2.30;;;16.60;95.40;;;;;;5037107;28;20920;-74
2023/04/30 11:51:19;;;;;;;2.30;1.80;;;16.70;95.40;;;;;;5037416;28;20517;-73
2023/04/30 11:53:47;;;;;;;2.20;2.00;;;16.70;95.40;;;;;;5056214;28;20455;-75
2023/04/30 11:56:26;;;;;;;2.23;2.07;;;16.80;95.40;;;;;;5033553;28;20417;-76
2023/04/30 11:58:54;;;;;;;1.90;1.70;;;16.80;95.30;;;;;;5057520;28;20424;-76
2023/04/30 12:01:29;;;;;;;2.00;1.80;;;16.80;95.20;;;;;;5058018;28;20434;-77
2023/04/30 12:03:56;;;;;;;2.30;1.90;;;16.90;95.10;;;;;;5062429;28;20446;-76
2023/04/30 12:06:23;;;;;;;7.70;2.10;;;16.90;95.00;;;;;;5056903;28;20423;-77
2023/04/30 12:08:53;;;;;;;2.93;1.77;;;17.00;95.00;;;;;;5056024;28;20454;-76
2023/04/30 12:11:24;;;;;;;2.13;1.80;;;17.00;94.70;;;;;;5056289;28;20424;-76
2023/04/30 12:13:55;;;;;;;2.93;1.77;;;17.00;94.70;;;;;;5073030;28;20469;-76
2023/04/30 12:16:27;;;;;;;2.30;1.70;;;17.10;94.70;;;;;;5039624;28;20459;-76
2023/04/30 12:18:57;;;;;;;1.97;1.80;;;17.10;94.60;;;;;;5089634;28;20396;-76
2023/04/30 12:21:23;;;;;;;1.83;1.73;;;17.10;94.50;;;;;;5056080;28;20988;-76
2023/04/30 12:23:50;;;;;;;1.90;1.70;;;17.20;94.40;;;;;;5044674;28;20871;-76
2023/04/30 12:26:16;;;;;;;1.80;1.70;;;17.20;94.20;;;;;;5053121;28;20913;-76
2023/04/30 12:28:47;;;;;;;1.90;1.70;;;17.20;94.20;;;;;;5056337;28;20416;-76
2023/04/30 12:31:13;;;;;;;2.37;1.60;;;17.30;94.20;;;;;;5054409;28;20463;-76
2023/04/30 12:33:52;;;;;;;1.87;1.73;;;17.30;94.10;;;;;;5055935;28;20452;-76
2023/04/30 12:36:20;;;;;;;1.70;1.60;;;17.30;94.00;;;;;;5073270;28;20404;-76
2023/04/30 12:39:20;;;;;;;2.03;1.50;;;17.40;93.90;;;;;;5023611;28;20423;-77
2023/04/30 12:41:48;;;;;;;1.97;1.60;;;17.40;93.70;;;;;;5055538;28;20984;-76
2023/04/30 12:44:17;;;;;;;2.27;2.07;;;17.50;93.60;;;;;;5072663;28;20427;-76
2023/04/30 12:46:47;;;;;;;2.23;2.03;;;17.40;93.60;;;;;;5054828;28;20423;-76
2023/04/30 12:49:24;;;;;;;1.57;1.47;;;17.50;93.60;;;;;;5039499;28;20852;-76
2023/04/30 12:52:08;;;;;;;2.73;1.77;;;17.50;93.50;;;;;;5055674;28;20444;-76
2023/04/30 12:54:38;;;;;;;2.00;1.27;;;17.60;93.50;;;;;;5056152;28;20429;-76
2023/04/30 12:57:09;;;;;;;2.40;1.83;;;17.60;93.40;;;;;;5038992;28;20408;-76